Portada
METAR-TAF:

METAR-TAF

Aeroports :

Krasnoiarsk, Rússia

latitud: 56-10-18N, longitud: 092-29-36E, altitud: 287 m

Observació

L'informe es va fer fa 40 minuts, a les 11:00 UTC
Vent calma
Temperatura -15°C
Humitat 92%
Pressió 1043 hPa
Visibilitat 10 km o més
sense núvols per sota de 1500 mi sense presència de cumulonimbus.

METAR: UNKL 261100Z 00000MPS CAVOK M15/M16 Q1043 R29/CLRD65 NOSIG RMK QFE756

Hora: 18:40 (11:40 UTC)

Pronòstic

L'informe es va fer fa 57 minuts, a les 10:43 UTC
Pronòstic vàlid del 26 a les 12 UTC al 27 a les 12 UTC
Vent 6 kt del Est
Visibilitat 10 km o més
Núvols disperses a una alçada de 1600 ft
Temporalment
l' 26 a les 18 UTC al 27 a les 02 UTC
Visibilitat: 3100 m
boirina

TAF: UNKL 261043Z 2612/2712 09003MPS 9999 SCT016 TEMPO 2618/2702 3100 BR

Observacions i pronòstics meteorològics de més de 4000 aeroports (METAR i TAF).

Les estacions disponibles són els punts grocs i vermells al mapa.

Posi el ratolí al punt desitjat per veure el nom de l'estació.

Feu clic per veure les observacions i els pronòstics meteorològics.

Per canviar el mapa: feu clic els botons verds amb una creu de color negre per apropar; al botó verd amb un guió per allunyar la imatge; o en les fletxes verdes per a mapes adjacents.


METAR-TAF: